sensor_id;sensor_type;location;lat;lon;timestamp;pressure;altitude;pressure_sealevel;temperature;humidity
75656;BME280;64252;51.094;13.714;2023-09-30T00:02:13;100727.53;;;30.30;38.19
75656;BME280;64252;51.094;13.714;2023-09-30T00:04:39;100731.78;;;31.14;36.68
75656;BME280;64252;51.094;13.714;2023-09-30T00:07:05;100723.50;;;30.54;37.86
75656;BME280;64252;51.094;13.714;2023-09-30T00:09:31;100738.53;;;30.15;38.57
75656;BME280;64252;51.094;13.714;2023-09-30T00:11:56;100725.88;;;30.55;37.77
75656;BME280;64252;51.094;13.714;2023-09-30T00:14:23;100733.63;;;30.64;37.58
75656;BME280;64252;51.094;13.714;2023-09-30T00:16:48;100741.59;;;31.11;36.99
75656;BME280;64252;51.094;13.714;2023-09-30T00:19:14;100750.00;;;29.93;39.20
75656;BME280;64252;51.094;13.714;2023-09-30T00:21:40;100756.59;;;29.67;40.34
75656;BME280;64252;51.094;13.714;2023-09-30T00:24:06;100751.97;;;29.55;40.57
75656;BME280;64252;51.094;13.714;2023-09-30T00:26:31;100762.47;;;29.47;41.57
75656;BME280;64252;51.094;13.714;2023-09-30T00:28:57;100767.31;;;29.56;41.44
75656;BME280;64252;51.094;13.714;2023-09-30T00:31:23;100756.69;;;29.53;41.46
75656;BME280;64252;51.094;13.714;2023-09-30T00:36:14;100763.56;;;29.09;42.79
75656;BME280;64252;51.094;13.714;2023-09-30T00:38:40;100767.69;;;29.23;42.10
75656;BME280;64252;51.094;13.714;2023-09-30T00:41:06;100768.88;;;29.31;42.49
75656;BME280;64252;51.094;13.714;2023-09-30T00:43:33;100771.63;;;30.12;40.25
75656;BME280;64252;51.094;13.714;2023-09-30T00:46:06;100770.44;;;29.52;42.00
75656;BME280;64252;51.094;13.714;2023-09-30T00:48:34;100770.75;;;28.44;44.28
75656;BME280;64252;51.094;13.714;2023-09-30T00:51:00;100779.22;;;29.58;42.21
75656;BME280;64252;51.094;13.714;2023-09-30T00:53:26;100780.47;;;28.91;43.03
75656;BME280;64252;51.094;13.714;2023-09-30T00:55:53;100789.91;;;28.36;44.60
75656;BME280;64252;51.094;13.714;2023-09-30T00:58:20;100784.38;;;28.09;45.17
75656;BME280;64252;51.094;13.714;2023-09-30T01:00:47;100802.00;;;28.49;44.23
75656;BME280;64252;51.094;13.714;2023-09-30T01:03:12;100793.69;;;28.92;42.89
75656;BME280;64252;51.094;13.714;2023-09-30T01:05:38;100797.50;;;27.89;45.01
75656;BME280;64252;51.094;13.714;2023-09-30T01:08:04;100800.13;;;28.96;42.54
75656;BME280;64252;51.094;13.714;2023-09-30T01:10:30;100807.31;;;28.36;43.53
75656;BME280;64252;51.094;13.714;2023-09-30T01:12:56;100801.53;;;28.21;44.15
75656;BME280;64252;51.094;13.714;2023-09-30T01:15:23;100809.00;;;27.99;44.14
75656;BME280;64252;51.094;13.714;2023-09-30T01:17:49;100809.00;;;27.99;44.09
75656;BME280;64252;51.094;13.714;2023-09-30T01:20:15;100825.06;;;28.38;43.29
75656;BME280;64252;51.094;13.714;2023-09-30T01:22:48;100818.31;;;28.03;43.53
75656;BME280;64252;51.094;13.714;2023-09-30T01:25:15;100819.81;;;27.83;44.09
75656;BME280;64252;51.094;13.714;2023-09-30T01:27:40;100825.75;;;27.50;45.00
75656;BME280;64252;51.094;13.714;2023-09-30T01:30:06;100837.31;;;26.70;46.46
75656;BME280;64252;51.094;13.714;2023-09-30T01:32:37;100836.69;;;26.66;46.82
75656;BME280;64252;51.094;13.714;2023-09-30T01:35:02;100835.78;;;27.64;44.53
75656;BME280;64252;51.094;13.714;2023-09-30T01:37:28;100843.63;;;27.73;44.44
75656;BME280;64252;51.094;13.714;2023-09-30T01:39:54;100844.47;;;27.64;44.42
75656;BME280;64252;51.094;13.714;2023-09-30T01:42:20;100855.47;;;27.99;43.53
75656;BME280;64252;51.094;13.714;2023-09-30T01:44:46;100852.50;;;28.52;42.42
75656;BME280;64252;51.094;13.714;2023-09-30T01:47:12;100854.34;;;28.34;42.59
75656;BME280;64252;51.094;13.714;2023-09-30T01:49:39;100865.38;;;28.07;43.26
75656;BME280;64252;51.094;13.714;2023-09-30T01:52:04;100864.50;;;28.01;43.30
75656;BME280;64252;51.094;13.714;2023-09-30T01:54:30;100869.28;;;27.89;43.28
75656;BME280;64252;51.094;13.714;2023-09-30T01:56:56;100865.31;;;28.16;43.04
75656;BME280;64252;51.094;13.714;2023-09-30T01:59:22;100869.44;;;28.24;43.16
75656;BME280;64252;51.094;13.714;2023-09-30T02:01:49;100874.22;;;27.59;44.91
75656;BME280;64252;51.094;13.714;2023-09-30T02:06:42;100882.72;;;27.39;45.82
75656;BME280;64252;51.094;13.714;2023-09-30T02:09:08;100876.84;;;27.48;45.82
75656;BME280;64252;51.094;13.714;2023-09-30T02:11:37;100885.69;;;27.77;45.35
75656;BME280;64252;51.094;13.714;2023-09-30T02:14:03;100887.28;;;27.55;45.60
75656;BME280;64252;51.094;13.714;2023-09-30T02:16:31;100887.59;;;26.58;47.67
75656;BME280;64252;51.094;13.714;2023-09-30T02:18:58;100897.16;;;27.48;46.25
75656;BME280;64252;51.094;13.714;2023-09-30T02:21:24;100898.31;;;27.18;46.34
75656;BME280;64252;51.094;13.714;2023-09-30T02:23:50;100903.09;;;27.77;45.21
75656;BME280;64252;51.094;13.714;2023-09-30T02:26:21;100920.34;;;26.13;47.30
75656;BME280;64252;51.094;13.714;2023-09-30T02:28:48;100916.06;;;26.69;44.95
75656;BME280;64252;51.094;13.714;2023-09-30T02:31:13;100911.44;;;27.28;42.88
75656;BME280;64252;51.094;13.714;2023-09-30T02:33:39;100915.22;;;26.86;43.28
75656;BME280;64252;51.094;13.714;2023-09-30T02:36:08;100916.78;;;26.45;43.77
75656;BME280;64252;51.094;13.714;2023-09-30T02:38:35;100917.00;;;27.17;42.53
75656;BME280;64252;51.094;13.714;2023-09-30T02:41:03;100926.50;;;27.50;41.64
75656;BME280;64252;51.094;13.714;2023-09-30T02:43:28;100929.22;;;27.21;42.01
75656;BME280;64252;51.094;13.714;2023-09-30T02:45:55;100939.44;;;26.47;43.16
75656;BME280;64252;51.094;13.714;2023-09-30T02:48:21;100946.16;;;26.62;43.29
75656;BME280;64252;51.094;13.714;2023-09-30T02:50:47;100949.56;;;26.70;43.02
75656;BME280;64252;51.094;13.714;2023-09-30T02:53:13;100952.75;;;27.46;41.68
75656;BME280;64252;51.094;13.714;2023-09-30T02:55:39;100951.34;;;27.42;41.79
75656;BME280;64252;51.094;13.714;2023-09-30T02:58:06;100957.13;;;26.58;42.48
75656;BME280;64252;51.094;13.714;2023-09-30T03:00:34;100966.00;;;27.15;41.46
75656;BME280;64252;51.094;13.714;2023-09-30T03:03:02;100957.63;;;27.17;41.18
75656;BME280;64252;51.094;13.714;2023-09-30T03:05:28;100967.59;;;27.16;40.86
75656;BME280;64252;51.094;13.714;2023-09-30T03:07:56;100978.28;;;27.00;40.70
75656;BME280;64252;51.094;13.714;2023-09-30T03:10:22;100979.34;;;25.70;42.06
75656;BME280;64252;51.094;13.714;2023-09-30T03:12:50;100978.06;;;26.53;40.29
75656;BME280;64252;51.094;13.714;2023-09-30T03:15:16;100975.94;;;25.13;40.88
75656;BME280;64252;51.094;13.714;2023-09-30T03:17:42;100987.19;;;25.60;39.65
75656;BME280;64252;51.094;13.714;2023-09-30T03:20:09;100991.94;;;24.31;41.72
75656;BME280;64252;51.094;13.714;2023-09-30T03:22:41;100997.66;;;25.85;39.41
75656;BME280;64252;51.094;13.714;2023-09-30T03:25:09;100996.91;;;25.45;39.87
75656;BME280;64252;51.094;13.714;2023-09-30T03:27:35;101005.75;;;25.50;39.48
75656;BME280;64252;51.094;13.714;2023-09-30T03:30:05;101004.66;;;25.57;39.67
75656;BME280;64252;51.094;13.714;2023-09-30T03:32:31;101015.53;;;25.93;38.65
75656;BME280;64252;51.094;13.714;2023-09-30T03:34:59;101019.66;;;25.33;39.87
75656;BME280;64252;51.094;13.714;2023-09-30T03:37:27;101028.03;;;25.81;38.78
75656;BME280;64252;51.094;13.714;2023-09-30T03:39:56;101041.50;;;25.25;39.61
75656;BME280;64252;51.094;13.714;2023-09-30T03:42:21;101037.59;;;25.19;39.97
75656;BME280;64252;51.094;13.714;2023-09-30T03:44:47;101053.31;;;25.09;40.01
75656;BME280;64252;51.094;13.714;2023-09-30T03:47:15;101053.00;;;25.47;39.31
75656;BME280;64252;51.094;13.714;2023-09-30T03:49:42;101049.38;;;24.94;40.16
75656;BME280;64252;51.094;13.714;2023-09-30T03:52:09;101067.75;;;25.09;40.12
75656;BME280;64252;51.094;13.714;2023-09-30T03:54:35;101067.28;;;25.42;39.67
75656;BME280;64252;51.094;13.714;2023-09-30T03:57:01;101061.78;;;26.51;37.89
75656;BME280;64252;51.094;13.714;2023-09-30T03:59:27;101070.34;;;25.87;38.54
75656;BME280;64252;51.094;13.714;2023-09-30T04:01:53;101075.63;;;25.80;38.82
75656;BME280;64252;51.094;13.714;2023-09-30T04:04:22;101090.09;;;25.49;39.34
75656;BME280;64252;51.094;13.714;2023-09-30T04:06:47;101091.69;;;25.41;39.47
75656;BME280;64252;51.094;13.714;2023-09-30T04:09:13;101092.50;;;25.81;39.00
75656;BME280;64252;51.094;13.714;2023-09-30T04:11:39;101086.47;;;26.15;38.35
75656;BME280;64252;51.094;13.714;2023-09-30T04:14:06;101080.41;;;26.68;37.39
75656;BME280;64252;51.094;13.714;2023-09-30T04:16:34;101082.25;;;25.18;40.11
75656;BME280;64252;51.094;13.714;2023-09-30T04:19:00;101092.44;;;25.32;39.99
75656;BME280;64252;51.094;13.714;2023-09-30T04:21:26;101086.69;;;25.10;40.29
75656;BME280;64252;51.094;13.714;2023-09-30T04:23:53;101095.31;;;25.01;40.80
75656;BME280;64252;51.094;13.714;2023-09-30T04:26:19;101101.47;;;24.47;41.66
75656;BME280;64252;51.094;13.714;2023-09-30T04:28:45;101116.78;;;24.57;41.84
75656;BME280;64252;51.094;13.714;2023-09-30T04:31:10;101121.16;;;24.83;41.56
75656;BME280;64252;51.094;13.714;2023-09-30T04:33:39;101115.72;;;24.85;40.82
75656;BME280;64252;51.094;13.714;2023-09-30T04:36:06;101119.34;;;25.42;40.00
75656;BME280;64252;51.094;13.714;2023-09-30T04:38:34;101117.72;;;24.54;41.90
75656;BME280;64252;51.094;13.714;2023-09-30T04:41:03;101119.47;;;24.73;41.41
75656;BME280;64252;51.094;13.714;2023-09-30T04:43:29;101126.84;;;25.39;40.05
75656;BME280;64252;51.094;13.714;2023-09-30T04:45:55;101141.22;;;24.43;41.89
75656;BME280;64252;51.094;13.714;2023-09-30T04:48:25;101139.69;;;24.73;41.39
75656;BME280;64252;51.094;13.714;2023-09-30T04:50:51;101140.56;;;24.82;40.82
75656;BME280;64252;51.094;13.714;2023-09-30T04:53:19;101147.44;;;24.76;40.94
75656;BME280;64252;51.094;13.714;2023-09-30T04:55:44;101140.47;;;25.08;40.75
75656;BME280;64252;51.094;13.714;2023-09-30T04:58:11;101153.91;;;24.45;41.90
75656;BME280;64252;51.094;13.714;2023-09-30T05:00:37;101155.88;;;25.26;40.20
75656;BME280;64252;51.094;13.714;2023-09-30T05:03:03;101146.63;;;25.41;40.15
75656;BME280;64252;51.094;13.714;2023-09-30T05:05:30;101155.19;;;25.22;40.34
75656;BME280;64252;51.094;13.714;2023-09-30T05:07:56;101164.06;;;25.06;40.84
75656;BME280;64252;51.094;13.714;2023-09-30T05:10:24;101158.25;;;25.19;40.53
75656;BME280;64252;51.094;13.714;2023-09-30T05:12:50;101154.97;;;25.39;40.23
75656;BME280;64252;51.094;13.714;2023-09-30T05:15:20;101163.16;;;25.62;40.04
75656;BME280;64252;51.094;13.714;2023-09-30T05:17:48;101160.34;;;25.49;39.78
75656;BME280;64252;51.094;13.714;2023-09-30T05:20:15;101153.22;;;25.41;40.20
75656;BME280;64252;51.094;13.714;2023-09-30T05:22:43;101152.16;;;25.26;40.76
75656;BME280;64252;51.094;13.714;2023-09-30T05:25:15;101161.34;;;25.33;40.44
75656;BME280;64252;51.094;13.714;2023-09-30T05:27:44;101155.31;;;25.71;39.81
75656;BME280;64252;51.094;13.714;2023-09-30T05:30:10;101152.69;;;25.95;39.31
75656;BME280;64252;51.094;13.714;2023-09-30T05:32:37;101156.34;;;26.27;38.82
75656;BME280;64252;51.094;13.714;2023-09-30T05:35:07;101164.72;;;25.85;39.59
75656;BME280;64252;51.094;13.714;2023-09-30T05:37:42;101154.03;;;26.03;39.37
75656;BME280;64252;51.094;13.714;2023-09-30T05:40:08;101149.72;;;25.46;40.37
75656;BME280;64252;51.094;13.714;2023-09-30T05:42:47;101158.06;;;25.44;40.88
75656;BME280;64252;51.094;13.714;2023-09-30T05:45:15;101155.59;;;25.55;40.58
75656;BME280;64252;51.094;13.714;2023-09-30T05:47:42;101148.13;;;25.02;41.15
75656;BME280;64252;51.094;13.714;2023-09-30T05:50:09;101163.63;;;25.39;41.11
75656;BME280;64252;51.094;13.714;2023-09-30T05:52:34;101154.16;;;26.00;40.01
75656;BME280;64252;51.094;13.714;2023-09-30T05:55:02;101160.56;;;25.55;40.70
75656;BME280;64252;51.094;13.714;2023-09-30T05:57:28;101158.50;;;25.12;41.65
75656;BME280;64252;51.094;13.714;2023-09-30T05:59:54;101167.09;;;25.24;41.80
75656;BME280;64252;51.094;13.714;2023-09-30T06:02:20;101162.56;;;25.76;40.87
75656;BME280;64252;51.094;13.714;2023-09-30T06:04:57;101161.41;;;26.04;40.39
75656;BME280;64252;51.094;13.714;2023-09-30T06:07:23;101165.50;;;25.85;40.94
75656;BME280;64252;51.094;13.714;2023-09-30T06:09:49;101169.25;;;25.55;41.58
75656;BME280;64252;51.094;13.714;2023-09-30T06:12:15;101175.97;;;25.08;42.18
75656;BME280;64252;51.094;13.714;2023-09-30T06:14:41;101179.72;;;24.96;42.97
75656;BME280;64252;51.094;13.714;2023-09-30T06:17:07;101197.13;;;24.36;44.19
75656;BME280;64252;51.094;13.714;2023-09-30T06:19:33;101192.28;;;24.68;43.21
75656;BME280;64252;51.094;13.714;2023-09-30T06:21:59;101193.66;;;24.76;42.94
75656;BME280;64252;51.094;13.714;2023-09-30T06:24:25;101205.19;;;25.54;41.66
75656;BME280;64252;51.094;13.714;2023-09-30T06:26:50;101209.25;;;25.34;41.90
75656;BME280;64252;51.094;13.714;2023-09-30T06:29:16;101211.81;;;25.85;41.12
75656;BME280;64252;51.094;13.714;2023-09-30T06:31:42;101224.06;;;24.68;43.28
75656;BME280;64252;51.094;13.714;2023-09-30T06:34:08;101225.31;;;25.35;42.04
75656;BME280;64252;51.094;13.714;2023-09-30T06:36:36;101230.59;;;26.11;40.77
75656;BME280;64252;51.094;13.714;2023-09-30T06:39:06;101231.34;;;25.28;42.26
75656;BME280;64252;51.094;13.714;2023-09-30T06:41:31;101241.00;;;24.91;42.78
75656;BME280;64252;51.094;13.714;2023-09-30T06:43:59;101249.22;;;25.70;41.23
75656;BME280;64252;51.094;13.714;2023-09-30T06:46:26;101253.38;;;26.00;40.87
75656;BME280;64252;51.094;13.714;2023-09-30T06:48:51;101261.88;;;24.61;43.54
75656;BME280;64252;51.094;13.714;2023-09-30T06:51:17;101253.44;;;26.18;40.45
75656;BME280;64252;51.094;13.714;2023-09-30T06:53:44;101262.84;;;25.48;41.89
75656;BME280;64252;51.094;13.714;2023-09-30T06:56:11;101258.66;;;26.73;39.66
75656;BME280;64252;51.094;13.714;2023-09-30T06:58:38;101247.84;;;26.64;39.40
75656;BME280;64252;51.094;13.714;2023-09-30T07:01:04;101251.00;;;26.39;39.67
75656;BME280;64252;51.094;13.714;2023-09-30T07:03:29;101255.47;;;26.31;40.00
75656;BME280;64252;51.094;13.714;2023-09-30T07:05:55;101257.78;;;26.54;39.84
75656;BME280;64252;51.094;13.714;2023-09-30T07:08:22;101265.69;;;26.62;39.03
75656;BME280;64252;51.094;13.714;2023-09-30T07:10:48;101265.59;;;26.26;39.93
75656;BME280;64252;51.094;13.714;2023-09-30T07:13:18;101267.94;;;26.58;39.42
75656;BME280;64252;51.094;13.714;2023-09-30T07:15:44;101259.91;;;25.61;40.92
75656;BME280;64252;51.094;13.714;2023-09-30T07:18:09;101269.69;;;26.16;40.01
75656;BME280;64252;51.094;13.714;2023-09-30T07:20:36;101275.47;;;25.85;40.04
75656;BME280;64252;51.094;13.714;2023-09-30T07:23:02;101290.41;;;25.40;40.80
75656;BME280;64252;51.094;13.714;2023-09-30T07:25:29;101293.31;;;26.14;39.87
75656;BME280;64252;51.094;13.714;2023-09-30T07:28:01;101290.44;;;25.84;39.89
75656;BME280;64252;51.094;13.714;2023-09-30T07:30:26;101287.53;;;26.94;38.15
75656;BME280;64252;51.094;13.714;2023-09-30T07:32:52;101287.25;;;26.61;38.47
75656;BME280;64252;51.094;13.714;2023-09-30T07:35:18;101297.19;;;26.42;39.15
75656;BME280;64252;51.094;13.714;2023-09-30T07:37:44;101276.47;;;26.62;38.64
75656;BME280;64252;51.094;13.714;2023-09-30T07:40:10;101264.34;;;27.03;37.63
75656;BME280;64252;51.094;13.714;2023-09-30T07:42:36;101250.25;;;26.75;37.84
75656;BME280;64252;51.094;13.714;2023-09-30T07:45:03;101262.06;;;26.89;38.06
75656;BME280;64252;51.094;13.714;2023-09-30T07:47:32;101273.03;;;28.27;35.67
75656;BME280;64252;51.094;13.714;2023-09-30T07:50:01;101274.97;;;27.70;36.87
75656;BME280;64252;51.094;13.714;2023-09-30T07:52:31;101283.84;;;27.39;36.94
75656;BME280;64252;51.094;13.714;2023-09-30T07:54:57;101281.69;;;26.85;37.76
75656;BME280;64252;51.094;13.714;2023-09-30T07:57:23;101282.06;;;27.60;35.60
75656;BME280;64252;51.094;13.714;2023-09-30T07:59:48;101283.59;;;27.98;35.11
75656;BME280;64252;51.094;13.714;2023-09-30T08:02:14;101277.75;;;28.16;34.77
75656;BME280;64252;51.094;13.714;2023-09-30T08:04:40;101289.06;;;28.14;35.21
75656;BME280;64252;51.094;13.714;2023-09-30T08:07:05;101284.97;;;27.42;36.50
75656;BME280;64252;51.094;13.714;2023-09-30T08:09:31;101274.31;;;26.93;36.57
75656;BME280;64252;51.094;13.714;2023-09-30T08:11:57;101279.38;;;28.17;34.51
75656;BME280;64252;51.094;13.714;2023-09-30T08:14:23;101277.66;;;27.83;35.23
75656;BME280;64252;51.094;13.714;2023-09-30T08:16:49;101289.53;;;28.54;34.32
75656;BME280;64252;51.094;13.714;2023-09-30T08:19:14;101300.31;;;28.96;33.15
75656;BME280;64252;51.094;13.714;2023-09-30T08:21:40;101304.44;;;27.96;35.05
75656;BME280;64252;51.094;13.714;2023-09-30T08:24:06;101302.38;;;26.56;37.30
75656;BME280;64252;51.094;13.714;2023-09-30T08:26:32;101301.72;;;27.29;35.93
75656;BME280;64252;51.094;13.714;2023-09-30T08:28:59;101301.47;;;28.56;34.49
75656;BME280;64252;51.094;13.714;2023-09-30T08:31:24;101301.41;;;28.74;33.78
75656;BME280;64252;51.094;13.714;2023-09-30T08:33:50;101298.31;;;27.85;34.49
75656;BME280;64252;51.094;13.714;2023-09-30T08:36:16;101298.13;;;27.98;35.32
75656;BME280;64252;51.094;13.714;2023-09-30T08:38:42;101296.66;;;28.53;34.17
75656;BME280;64252;51.094;13.714;2023-09-30T08:41:09;101291.53;;;27.88;34.72
75656;BME280;64252;51.094;13.714;2023-09-30T08:43:39;101303.50;;;28.98;33.27
75656;BME280;64252;51.094;13.714;2023-09-30T08:46:06;101306.66;;;28.52;33.43
75656;BME280;64252;51.094;13.714;2023-09-30T08:48:33;101305.69;;;29.89;31.65
75656;BME280;64252;51.094;13.714;2023-09-30T08:51:00;101306.56;;;29.80;31.68
75656;BME280;64252;51.094;13.714;2023-09-30T08:53:26;101311.88;;;28.81;32.84
75656;BME280;64252;51.094;13.714;2023-09-30T08:55:55;101309.00;;;30.26;31.06
75656;BME280;64252;51.094;13.714;2023-09-30T08:58:24;101312.41;;;29.80;30.92
75656;BME280;64252;51.094;13.714;2023-09-30T09:00:50;101307.16;;;30.28;30.22
75656;BME280;64252;51.094;13.714;2023-09-30T09:03:18;101319.13;;;29.33;31.34
75656;BME280;64252;51.094;13.714;2023-09-30T09:05:44;101314.84;;;28.72;32.50
75656;BME280;64252;51.094;13.714;2023-09-30T09:08:10;101321.84;;;28.89;31.79
75656;BME280;64252;51.094;13.714;2023-09-30T09:10:53;101322.84;;;29.10;31.54
75656;BME280;64252;51.094;13.714;2023-09-30T09:13:20;101332.19;;;29.52;31.31
75656;BME280;64252;51.094;13.714;2023-09-30T09:15:45;101329.34;;;28.30;32.96
75656;BME280;64252;51.094;13.714;2023-09-30T09:18:11;101334.56;;;28.08;32.81
75656;BME280;64252;51.094;13.714;2023-09-30T09:20:39;101330.63;;;28.38;32.21
75656;BME280;64252;51.094;13.714;2023-09-30T09:23:06;101339.41;;;27.92;33.49
75656;BME280;64252;51.094;13.714;2023-09-30T09:25:38;101344.53;;;28.34;32.91
75656;BME280;64252;51.094;13.714;2023-09-30T09:28:04;101336.97;;;28.60;32.56
75656;BME280;64252;51.094;13.714;2023-09-30T09:30:30;101336.66;;;28.58;31.26
75656;BME280;64252;51.094;13.714;2023-09-30T09:33:03;101343.75;;;29.47;31.06
75656;BME280;64252;51.094;13.714;2023-09-30T09:35:31;101338.00;;;28.90;31.94
75656;BME280;64252;51.094;13.714;2023-09-30T09:38:08;101330.66;;;29.66;31.39
75656;BME280;64252;51.094;13.714;2023-09-30T09:40:37;101328.94;;;29.12;31.62
75656;BME280;64252;51.094;13.714;2023-09-30T09:43:04;101326.53;;;29.34;30.87
75656;BME280;64252;51.094;13.714;2023-09-30T09:45:35;101324.31;;;28.82;31.67
75656;BME280;64252;51.094;13.714;2023-09-30T09:48:03;101329.28;;;27.88;32.34
75656;BME280;64252;51.094;13.714;2023-09-30T09:50:35;101331.94;;;28.28;32.23
75656;BME280;64252;51.094;13.714;2023-09-30T09:53:05;101330.00;;;29.23;31.60
75656;BME280;64252;51.094;13.714;2023-09-30T09:55:31;101331.06;;;29.35;31.34
75656;BME280;64252;51.094;13.714;2023-09-30T09:57:58;101330.91;;;28.82;31.20
75656;BME280;64252;51.094;13.714;2023-09-30T10:00:25;101337.84;;;27.91;31.60
75656;BME280;64252;51.094;13.714;2023-09-30T10:02:52;101340.03;;;28.66;30.93
75656;BME280;64252;51.094;13.714;2023-09-30T10:05:19;101335.66;;;28.28;31.28
75656;BME280;64252;51.094;13.714;2023-09-30T10:08:05;101333.06;;;28.72;30.54
75656;BME280;64252;51.094;13.714;2023-09-30T10:10:36;101330.47;;;28.74;30.54
75656;BME280;64252;51.094;13.714;2023-09-30T10:13:05;101333.97;;;29.35;29.77
75656;BME280;64252;51.094;13.714;2023-09-30T10:20:31;101320.44;;;30.29;27.41
75656;BME280;64252;51.094;13.714;2023-09-30T10:23:29;101322.41;;;31.22;26.97
75656;BME280;64252;51.094;13.714;2023-09-30T10:26:16;101332.63;;;31.73;26.35
75656;BME280;64252;51.094;13.714;2023-09-30T10:28:47;101320.88;;;31.47;26.37
75656;BME280;64252;51.094;13.714;2023-09-30T10:31:22;101332.41;;;30.81;26.81
75656;BME280;64252;51.094;13.714;2023-09-30T10:38:55;101323.53;;;30.70;27.54
75656;BME280;64252;51.094;13.714;2023-09-30T10:46:54;101343.78;;;31.14;27.25
75656;BME280;64252;51.094;13.714;2023-09-30T10:51:56;101340.94;;;30.64;27.29
75656;BME280;64252;51.094;13.714;2023-09-30T10:54:23;101335.22;;;30.26;27.32
75656;BME280;64252;51.094;13.714;2023-09-30T10:56:49;101342.44;;;30.01;27.55
75656;BME280;64252;51.094;13.714;2023-09-30T10:59:19;101334.81;;;31.37;26.14
75656;BME280;64252;51.094;13.714;2023-09-30T11:01:45;101331.13;;;32.09;25.48
75656;BME280;64252;51.094;13.714;2023-09-30T11:04:11;101324.75;;;30.19;27.60
75656;BME280;64252;51.094;13.714;2023-09-30T11:06:40;101319.91;;;31.76;26.00
75656;BME280;64252;51.094;13.714;2023-09-30T11:09:06;101337.66;;;30.77;26.76
75656;BME280;64252;51.094;13.714;2023-09-30T11:11:52;101341.81;;;29.44;28.38
75656;BME280;64252;51.094;13.714;2023-09-30T11:14:34;101329.63;;;29.07;28.67
75656;BME280;64252;51.094;13.714;2023-09-30T11:17:02;101333.84;;;28.40;29.87
75656;BME280;64252;51.094;13.714;2023-09-30T11:19:36;101326.97;;;29.18;28.92
75656;BME280;64252;51.094;13.714;2023-09-30T11:22:03;101320.34;;;28.28;30.59
75656;BME280;64252;51.094;13.714;2023-09-30T11:24:35;101331.78;;;28.64;29.56
75656;BME280;64252;51.094;13.714;2023-09-30T11:27:01;101318.06;;;28.65;28.33
75656;BME280;64252;51.094;13.714;2023-09-30T11:29:27;101313.09;;;30.48;27.50
75656;BME280;64252;51.094;13.714;2023-09-30T11:31:53;101324.13;;;28.85;28.79
75656;BME280;64252;51.094;13.714;2023-09-30T11:34:19;101323.94;;;29.36;28.46
75656;BME280;64252;51.094;13.714;2023-09-30T11:36:52;101321.72;;;29.31;28.12
75656;BME280;64252;51.094;13.714;2023-09-30T11:39:26;101328.94;;;28.88;29.46
75656;BME280;64252;51.094;13.714;2023-09-30T11:41:53;101318.41;;;28.25;30.29
75656;BME280;64252;51.094;13.714;2023-09-30T11:44:20;101317.84;;;29.25;29.02
75656;BME280;64252;51.094;13.714;2023-09-30T11:46:48;101318.13;;;28.89;28.55
75656;BME280;64252;51.094;13.714;2023-09-30T11:51:50;101317.72;;;29.19;28.84
75656;BME280;64252;51.094;13.714;2023-09-30T11:54:16;101321.06;;;30.04;27.59
75656;BME280;64252;51.094;13.714;2023-09-30T11:56:42;101315.19;;;29.75;28.44
75656;BME280;64252;51.094;13.714;2023-09-30T11:59:09;101308.97;;;30.40;27.68
75656;BME280;64252;51.094;13.714;2023-09-30T12:01:37;101303.53;;;28.65;28.80
75656;BME280;64252;51.094;13.714;2023-09-30T12:04:03;101296.38;;;29.46;28.18
75656;BME280;64252;51.094;13.714;2023-09-30T12:06:29;101297.91;;;30.44;26.24
75656;BME280;64252;51.094;13.714;2023-09-30T12:08:55;101294.50;;;29.73;27.59
75656;BME280;64252;51.094;13.714;2023-09-30T12:11:21;101288.59;;;29.29;28.17
75656;BME280;64252;51.094;13.714;2023-09-30T12:13:50;101287.03;;;31.15;26.35
75656;BME280;64252;51.094;13.714;2023-09-30T12:16:16;101280.84;;;31.07;26.15
75656;BME280;64252;51.094;13.714;2023-09-30T12:18:42;101285.88;;;30.22;26.47
75656;BME280;64252;51.094;13.714;2023-09-30T12:21:10;101287.88;;;30.45;25.95
75656;BME280;64252;51.094;13.714;2023-09-30T12:23:36;101286.66;;;31.48;25.10
75656;BME280;64252;51.094;13.714;2023-09-30T12:26:03;101281.88;;;31.96;24.67
75656;BME280;64252;51.094;13.714;2023-09-30T12:28:32;101272.47;;;32.44;24.09
75656;BME280;64252;51.094;13.714;2023-09-30T12:30:59;101281.31;;;30.85;24.59
75656;BME280;64252;51.094;13.714;2023-09-30T12:33:29;101279.28;;;30.91;25.38
75656;BME280;64252;51.094;13.714;2023-09-30T12:35:56;101281.16;;;29.28;27.31
75656;BME280;64252;51.094;13.714;2023-09-30T12:38:24;101271.78;;;31.05;26.05
75656;BME280;64252;51.094;13.714;2023-09-30T12:40:52;101270.94;;;31.91;24.74
75656;BME280;64252;51.094;13.714;2023-09-30T12:43:19;101264.19;;;30.93;25.41
75656;BME280;64252;51.094;13.714;2023-09-30T12:45:45;101266.81;;;30.56;25.80
75656;BME280;64252;51.094;13.714;2023-09-30T12:48:13;101254.78;;;31.24;25.50
75656;BME280;64252;51.094;13.714;2023-09-30T12:50:40;101259.00;;;30.47;25.03
75656;BME280;64252;51.094;13.714;2023-09-30T12:53:06;101243.81;;;30.58;25.18
75656;BME280;64252;51.094;13.714;2023-09-30T12:55:32;101252.22;;;30.21;26.08
75656;BME280;64252;51.094;13.714;2023-09-30T12:57:58;101255.09;;;30.50;25.22
75656;BME280;64252;51.094;13.714;2023-09-30T13:00:26;101247.50;;;31.60;24.64
75656;BME280;64252;51.094;13.714;2023-09-30T13:02:52;101247.28;;;29.39;26.77
75656;BME280;64252;51.094;13.714;2023-09-30T13:05:18;101248.13;;;30.83;25.26
75656;BME280;64252;51.094;13.714;2023-09-30T13:07:45;101244.34;;;31.89;24.71